Etusivu
METAR-TAF:

METAR-TAF

Lentoasemat :

Richard B. Russell Airport

Rome, Georgia, Yhdysvallat

Leveyspiiri: 34-20-52N, Pituuspiiri: 085-09-40W, korkeus merenpinnasta: 194 m

Tämänhetkinen sää

Tämä raportti tehtiin 13 minuuttia sitten, kello 14.53 UTC
Tuuli 4 kn pohjoisesta/koillisesta
Lämpötila 8°C
Kosteus 93%
Ilmanpaine 1022 hPa
Näkyvyys: 4.0 km
Hajanaisia pilviä 700 ft:n korkeudessa
Hajanaisia pilviä 4400 ft:n korkeudessa
Pilvistä 5500 ft:n korkeudessa
sadetta, utua

METAR: KRMG 261453Z AUTO 02004KT 2 1/2SM RA BR SCT007 SCT044 OVC055 08/07 A3019 RMK AO2 SLP219 P0031 60065 T00830067 53009

Aika: 10:06 (15:06 UTC)


TAF: puuttuu

Säähavainnot ja -ennusteet yli 4000 lentoasemalta (METAR- ja TAF-raportit).

Käytössä olevat sääasemat on merkitty karttaan keltaisilla ja punaisilla pisteillä.

Aseta hiiri pisteen päälle nähdäksesi sääaseman nimen.

Klikkaa sitten nähdäksesi säähavainnot ja -ennusteet.

Kartan vaihtaminen: klikkaa mustalla rastilla varustettuja vihreitä pisteitä, niin voit zoomata sisään; viivalla varustettua vihreää pistettä, niin voit zoomata ulos tai vihreitä nuolia, niin pääset viereisille kartoille.


METAR-TAF: